createdAt,value
2022-08-17T00:02:26.895Z,17.70
2022-08-17T00:05:30.916Z,17.70
2022-08-17T00:08:35.989Z,17.70
2022-08-17T00:11:39.801Z,17.60
2022-08-17T00:14:41.889Z,17.70
2022-08-17T00:17:47.601Z,17.70
2022-08-17T00:20:49.589Z,17.80
2022-08-17T00:23:51.572Z,17.80
2022-08-17T00:26:53.537Z,17.90
2022-08-17T00:29:55.507Z,17.90
2022-08-17T00:33:12.527Z,17.90
2022-08-17T00:36:19.099Z,17.90
2022-08-17T00:39:21.004Z,18.00
2022-08-17T00:42:25.397Z,18.10
2022-08-17T00:45:30.862Z,18.20
2022-08-17T00:48:33.040Z,18.30
2022-08-17T00:51:37.932Z,18.20
2022-08-17T00:54:41.917Z,18.10
2022-08-17T00:57:46.877Z,18.00
2022-08-17T01:00:48.880Z,18.00
2022-08-17T01:03:53.915Z,18.00
2022-08-17T01:07:01.353Z,17.90
2022-08-17T01:10:03.752Z,17.90
2022-08-17T01:13:05.817Z,17.80
2022-08-17T01:16:23.005Z,17.80
2022-08-17T01:19:30.847Z,17.90
2022-08-17T01:22:32.865Z,18.00
2022-08-17T01:25:35.201Z,17.90
2022-08-17T01:28:55.030Z,17.80
2022-08-17T01:32:00.252Z,17.70
2022-08-17T01:35:02.312Z,17.70
2022-08-17T01:38:04.572Z,17.70
2022-08-17T01:41:09.571Z,17.60
2022-08-17T01:44:12.097Z,17.60
2022-08-17T01:47:14.077Z,17.50
2022-08-17T01:50:19.404Z,17.40
2022-08-17T01:53:23.948Z,17.30
2022-08-17T01:56:26.087Z,17.40
2022-08-17T01:59:27.915Z,17.30
2022-08-17T02:02:30.253Z,17.30
2022-08-17T02:05:33.213Z,17.30
2022-08-17T02:08:39.563Z,17.20
2022-08-17T02:11:58.940Z,17.20
2022-08-17T02:15:01.153Z,17.00
2022-08-17T02:18:03.602Z,17.00
2022-08-17T02:21:05.874Z,16.90
2022-08-17T02:24:09.077Z,16.90
2022-08-17T02:27:11.101Z,17.00
2022-08-17T02:31:02.294Z,17.10
2022-08-17T02:33:42.742Z,17.20
2022-08-17T02:36:45.526Z,17.30
2022-08-17T02:39:47.860Z,17.30
2022-08-17T02:42:50.130Z,17.20
2022-08-17T02:45:52.193Z,17.10
2022-08-17T02:48:54.305Z,17.00
2022-08-17T02:51:57.696Z,16.90
2022-08-17T02:54:59.625Z,16.80
2022-08-17T02:58:03.686Z,16.80
2022-08-17T03:01:06.555Z,16.80
2022-08-17T03:04:08.611Z,16.90
2022-08-17T03:07:10.605Z,17.00
2022-08-17T03:10:12.852Z,17.00
2022-08-17T03:13:14.870Z,17.00
2022-08-17T03:16:16.863Z,16.90
2022-08-17T03:19:18.840Z,16.80
2022-08-17T03:22:36.971Z,16.70
2022-08-17T03:25:43.399Z,16.60
2022-08-17T03:28:47.478Z,16.50
2022-08-17T03:31:49.960Z,16.50
2022-08-17T03:34:51.934Z,16.50
2022-08-17T03:38:00.173Z,16.50
2022-08-17T03:41:03.298Z,16.50
2022-08-17T03:44:05.389Z,16.50
2022-08-17T03:47:25.776Z,16.60
2022-08-17T03:50:46.276Z,16.50
2022-08-17T03:54:14.500Z,16.50
2022-08-17T03:57:16.765Z,16.50
2022-08-17T04:00:18.615Z,16.40
2022-08-17T04:03:20.735Z,16.50
2022-08-17T04:06:22.735Z,16.40
2022-08-17T04:09:24.867Z,16.50
2022-08-17T04:12:30.825Z,16.50
2022-08-17T04:15:33.667Z,16.50
2022-08-17T04:18:35.625Z,16.50
2022-08-17T04:21:37.579Z,16.50
2022-08-17T04:24:39.563Z,16.50
2022-08-17T04:27:41.506Z,16.50
2022-08-17T04:30:45.201Z,16.60
2022-08-17T04:33:47.195Z,16.50
2022-08-17T04:36:50.571Z,16.50
2022-08-17T04:40:12.576Z,16.40
2022-08-17T04:43:18.817Z,16.40
2022-08-17T04:46:22.580Z,16.30
2022-08-17T04:49:24.623Z,16.40
2022-08-17T04:52:32.203Z,16.30
2022-08-17T04:55:48.833Z,16.40
2022-08-17T04:58:51.124Z,16.50
2022-08-17T05:01:53.054Z,16.50
2022-08-17T05:04:54.998Z,16.50
2022-08-17T05:07:58.736Z,16.50
2022-08-17T05:11:01.578Z,16.50
2022-08-17T05:14:03.730Z,16.60
2022-08-17T05:17:07.292Z,16.60
2022-08-17T05:20:13.367Z,16.70
2022-08-17T05:23:17.174Z,16.70
2022-08-17T05:26:26.833Z,16.70
2022-08-17T05:29:35.553Z,16.70
2022-08-17T05:32:40.352Z,16.80
2022-08-17T05:35:50.117Z,16.90
2022-08-17T05:38:52.029Z,16.80
2022-08-17T05:41:54.052Z,16.80
2022-08-17T05:44:58.020Z,16.90
2022-08-17T05:47:59.965Z,17.00
2022-08-17T05:51:29.837Z,17.00
2022-08-17T05:55:02.088Z,17.00
2022-08-17T05:58:34.309Z,17.00
2022-08-17T06:02:00.989Z,16.90
2022-08-17T06:05:44.407Z,17.00
2022-08-17T06:09:12.180Z,17.10
2022-08-17T06:12:29.237Z,17.20
2022-08-17T06:15:33.302Z,17.30
2022-08-17T06:18:48.281Z,17.40
2022-08-17T06:21:51.470Z,17.60
2022-08-17T06:25:13.803Z,17.70
2022-08-17T06:28:27.347Z,17.90
2022-08-17T06:31:34.237Z,18.00
2022-08-17T06:34:37.517Z,18.10
2022-08-17T06:38:04.379Z,18.20
2022-08-17T06:41:27.528Z,18.40
2022-08-17T06:44:51.450Z,18.60
2022-08-17T06:47:59.496Z,18.70
2022-08-17T06:51:03.979Z,18.80
2022-08-17T06:54:11.715Z,18.80
2022-08-17T06:57:25.376Z,18.80
2022-08-17T07:00:29.664Z,18.80
2022-08-17T07:03:46.462Z,18.80
2022-08-17T07:06:53.318Z,18.80
2022-08-17T07:09:57.599Z,18.70
2022-08-17T07:13:14.125Z,18.70
2022-08-17T07:16:28.489Z,18.70
2022-08-17T07:19:32.088Z,18.60
2022-08-17T07:22:57.520Z,18.50
2022-08-17T07:26:10.237Z,18.60
2022-08-17T07:29:12.187Z,18.60
2022-08-17T07:32:18.428Z,18.70
2022-08-17T07:35:24.852Z,18.80
2022-08-17T07:38:39.925Z,18.90
2022-08-17T07:41:57.840Z,19.00
2022-08-17T07:45:21.243Z,19.00
2022-08-17T07:48:25.109Z,19.10
2022-08-17T07:52:47.468Z,19.30
2022-08-17T07:55:29.486Z,19.50
2022-08-17T07:58:31.511Z,19.70
2022-08-17T08:01:41.597Z,19.80
2022-08-17T08:05:01.417Z,19.90
2022-08-17T08:08:06.083Z,20.00
2022-08-17T08:11:11.187Z,20.00
2022-08-17T08:14:28.641Z,20.20
2022-08-17T08:17:35.858Z,20.40
2022-08-17T08:20:53.883Z,20.30
2022-08-17T08:24:01.403Z,20.30
2022-08-17T08:27:09.256Z,20.50
2022-08-17T08:30:16.282Z,20.40
2022-08-17T08:33:29.948Z,20.90
2022-08-17T08:36:57.053Z,21.20
2022-08-17T08:40:08.410Z,21.20
2022-08-17T08:43:22.394Z,21.20
2022-08-17T08:46:40.711Z,21.10
2022-08-17T08:50:37.524Z,20.90
2022-08-17T08:54:01.825Z,20.80
2022-08-17T08:57:26.910Z,20.80
2022-08-17T09:00:35.900Z,20.80
2022-08-17T09:03:53.358Z,21.00
2022-08-17T09:06:58.540Z,21.60
2022-08-17T09:10:30.990Z,22.80
2022-08-17T09:13:45.008Z,23.90
2022-08-17T09:16:50.264Z,23.70
2022-08-17T09:19:57.065Z,23.80
2022-08-17T09:23:14.678Z,23.90
2022-08-17T09:26:22.669Z,24.00
2022-08-17T09:29:28.079Z,24.30
2022-08-17T09:32:52.168Z,24.50
2022-08-17T09:36:05.697Z,24.00
2022-08-17T09:39:27.672Z,24.00
2022-08-17T09:42:49.374Z,24.20
2022-08-17T09:46:01.942Z,23.70
2022-08-17T09:49:27.930Z,23.60
2022-08-17T09:52:30.146Z,23.90
2022-08-17T09:55:38.265Z,24.60
2022-08-17T09:59:06.289Z,25.20
2022-08-17T10:02:34.820Z,25.00
2022-08-17T10:05:56.472Z,24.90
2022-08-17T10:09:07.464Z,24.70
2022-08-17T10:12:38.631Z,24.50
2022-08-17T10:15:56.985Z,24.60
2022-08-17T10:19:14.152Z,24.80
2022-08-17T10:22:51.192Z,24.60
2022-08-17T10:26:14.612Z,24.60
2022-08-17T10:29:20.245Z,24.90
2022-08-17T10:32:31.396Z,25.00
2022-08-17T10:36:03.648Z,24.80
2022-08-17T10:39:23.042Z,24.70
2022-08-17T10:42:34.907Z,24.80
2022-08-17T10:45:45.133Z,25.00
2022-08-17T10:49:15.006Z,25.40
2022-08-17T10:52:20.144Z,25.40
2022-08-17T10:55:22.292Z,25.00
2022-08-17T10:58:24.760Z,24.70
2022-08-17T11:01:43.454Z,24.60
2022-08-17T11:04:45.368Z,24.40
2022-08-17T11:08:01.749Z,24.40
2022-08-17T11:11:15.922Z,24.90
2022-08-17T11:14:23.790Z,25.50
2022-08-17T11:17:44.473Z,25.60
2022-08-17T11:21:10.775Z,25.40
2022-08-17T11:24:21.169Z,25.00
2022-08-17T11:27:34.163Z,24.70
2022-08-17T11:30:48.638Z,24.40
2022-08-17T11:34:05.428Z,24.40
2022-08-17T11:37:33.033Z,24.50
2022-08-17T11:40:50.384Z,24.50
2022-08-17T11:44:23.465Z,24.50
2022-08-17T11:48:16.411Z,24.40
2022-08-17T11:51:35.682Z,24.10
2022-08-17T11:54:47.506Z,23.80
2022-08-17T11:58:05.609Z,23.60
2022-08-17T12:01:24.457Z,23.50
2022-08-17T12:04:33.737Z,23.70
2022-08-17T12:07:35.685Z,23.90
2022-08-17T12:11:01.694Z,24.10
2022-08-17T12:14:03.693Z,24.30
2022-08-17T12:17:07.159Z,24.40
2022-08-17T12:20:15.585Z,24.50
2022-08-17T12:23:25.758Z,24.50
2022-08-17T12:26:33.124Z,24.70
2022-08-17T12:29:38.680Z,24.70
2022-08-17T12:32:41.197Z,24.70
2022-08-17T12:35:43.538Z,24.70
2022-08-17T12:38:53.303Z,24.60
2022-08-17T12:42:01.557Z,24.50
2022-08-17T12:45:07.545Z,24.40
2022-08-17T12:48:14.120Z,24.10
2022-08-17T12:51:16.216Z,23.90
2022-08-17T12:54:31.677Z,23.80
2022-08-17T12:57:34.480Z,23.70
2022-08-17T13:00:47.319Z,23.70
2022-08-17T13:03:54.812Z,23.50
2022-08-17T13:06:59.726Z,23.50
2022-08-17T13:10:02.615Z,23.50
2022-08-17T13:13:17.706Z,23.40
2022-08-17T13:16:28.092Z,23.30
2022-08-17T13:19:40.332Z,23.30
2022-08-17T13:22:45.409Z,23.30
2022-08-17T13:26:22.175Z,23.20
2022-08-17T13:29:37.260Z,23.10
2022-08-17T13:32:45.099Z,23.00
2022-08-17T13:35:50.547Z,22.90
2022-08-17T13:38:52.620Z,22.80
2022-08-17T13:41:56.156Z,22.80
2022-08-17T13:44:58.463Z,22.70
2022-08-17T13:48:10.954Z,22.60
2022-08-17T13:51:20.410Z,22.70
2022-08-17T13:54:33.321Z,22.60
2022-08-17T13:57:35.467Z,22.70
2022-08-17T14:00:37.523Z,22.70
2022-08-17T14:03:40.926Z,22.60
2022-08-17T14:06:51.929Z,22.60
2022-08-17T14:10:05.076Z,22.60
2022-08-17T14:13:07.231Z,22.50
2022-08-17T14:16:10.368Z,22.50
2022-08-17T14:19:13.027Z,22.40
2022-08-17T14:22:30.610Z,22.40
2022-08-17T14:25:32.921Z,22.30
2022-08-17T14:28:36.471Z,22.20
2022-08-17T14:31:39.126Z,22.20
2022-08-17T14:34:41.138Z,22.10
2022-08-17T14:37:45.902Z,22.00
2022-08-17T14:40:48.893Z,21.90
2022-08-17T14:43:53.081Z,21.70
2022-08-17T14:46:55.064Z,21.60
2022-08-17T14:49:57.317Z,21.50
2022-08-17T14:53:01.613Z,21.40
2022-08-17T14:56:04.081Z,21.30
2022-08-17T14:59:06.174Z,21.40
2022-08-17T15:02:08.255Z,21.30
2022-08-17T15:05:10.370Z,21.40
2022-08-17T15:08:12.498Z,21.50
2022-08-17T15:11:14.789Z,21.50
2022-08-17T15:14:16.791Z,21.50
2022-08-17T15:17:18.728Z,21.50
2022-08-17T15:20:23.619Z,21.60
2022-08-17T15:23:26.174Z,21.60
2022-08-17T15:26:28.178Z,21.70
2022-08-17T15:29:30.149Z,21.80
2022-08-17T15:32:34.672Z,21.80
2022-08-17T15:35:37.468Z,21.80
2022-08-17T15:38:39.425Z,21.80
2022-08-17T15:41:41.376Z,21.90
2022-08-17T15:44:44.581Z,22.00
2022-08-17T15:47:46.622Z,22.10
2022-08-17T15:50:48.632Z,22.20
2022-08-17T15:53:52.523Z,22.20
2022-08-17T15:56:54.420Z,22.20
2022-08-17T15:59:58.760Z,22.20
2022-08-17T16:03:15.345Z,22.20
2022-08-17T16:06:29.854Z,22.30
2022-08-17T16:09:31.828Z,22.30
2022-08-17T16:12:34.663Z,22.30
2022-08-17T16:15:37.581Z,22.30
2022-08-17T16:18:39.581Z,22.30
2022-08-17T16:21:42.949Z,22.30
2022-08-17T16:24:56.847Z,22.40
2022-08-17T16:27:59.970Z,22.30
2022-08-17T16:31:02.084Z,22.20
2022-08-17T16:34:16.879Z,22.20
2022-08-17T16:37:20.521Z,22.20
2022-08-17T16:40:23.444Z,22.00
2022-08-17T16:43:25.549Z,21.90
2022-08-17T16:46:29.294Z,21.80
2022-08-17T16:49:36.799Z,21.70
2022-08-17T16:52:40.156Z,21.70
2022-08-17T16:55:42.668Z,21.60
2022-08-17T16:58:44.945Z,21.60
2022-08-17T17:01:47.893Z,21.50
2022-08-17T17:04:53.824Z,21.60
2022-08-17T17:08:19.737Z,21.60
2022-08-17T17:11:26.248Z,21.60
2022-08-17T17:14:48.524Z,21.70
2022-08-17T17:17:50.666Z,21.60
2022-08-17T17:20:56.786Z,21.50
2022-08-17T17:24:00.364Z,21.40
2022-08-17T17:27:20.234Z,21.40
2022-08-17T17:30:40.068Z,21.40
2022-08-17T17:34:11.741Z,21.40
2022-08-17T17:37:15.724Z,21.40
2022-08-17T17:40:32.174Z,21.30
2022-08-17T17:43:41.366Z,21.30
2022-08-17T17:46:45.049Z,21.30
2022-08-17T17:49:48.746Z,21.30
2022-08-17T17:52:57.454Z,21.30
2022-08-17T17:56:18.800Z,21.20
2022-08-17T17:59:43.875Z,21.10
2022-08-17T18:03:05.229Z,21.00
2022-08-17T18:06:15.135Z,21.00
2022-08-17T18:09:38.851Z,21.00
2022-08-17T18:13:04.576Z,21.00
2022-08-17T18:16:06.913Z,20.90
2022-08-17T18:19:14.243Z,20.80
2022-08-17T18:22:18.903Z,20.80
2022-08-17T18:25:44.703Z,20.70
2022-08-17T18:28:46.666Z,20.60
2022-08-17T18:31:48.624Z,20.50
2022-08-17T18:34:57.938Z,20.40
2022-08-17T18:38:20.793Z,20.40
2022-08-17T18:41:26.232Z,20.50
2022-08-17T18:44:38.213Z,20.50
2022-08-17T18:47:52.989Z,20.50
2022-08-17T18:51:07.618Z,20.50
2022-08-17T18:54:23.720Z,20.50
2022-08-17T18:57:37.870Z,20.50
2022-08-17T19:00:41.248Z,20.50
2022-08-17T19:03:43.357Z,20.40
2022-08-17T19:06:45.316Z,20.50
2022-08-17T19:09:52.474Z,20.50
2022-08-17T19:13:13.711Z,20.40
2022-08-17T19:16:20.446Z,20.40
2022-08-17T19:19:44.445Z,20.30
2022-08-17T19:23:00.200Z,20.30
2022-08-17T19:26:03.986Z,20.30
2022-08-17T19:29:35.674Z,20.30
2022-08-17T19:32:38.021Z,20.30
2022-08-17T19:35:44.638Z,20.30
2022-08-17T19:38:53.051Z,20.30
2022-08-17T19:42:03.766Z,20.30
2022-08-17T19:45:12.642Z,20.30
2022-08-17T19:48:57.529Z,20.20
2022-08-17T19:52:06.557Z,20.10
2022-08-17T19:55:32.026Z,20.10
2022-08-17T19:58:53.289Z,20.00
2022-08-17T20:02:04.350Z,19.90
2022-08-17T20:05:11.808Z,19.90
2022-08-17T20:08:49.660Z,19.80
2022-08-17T20:11:56.432Z,19.80
2022-08-17T20:15:10.517Z,19.80
2022-08-17T20:18:26.225Z,19.80
2022-08-17T20:21:44.116Z,19.80
2022-08-17T20:24:54.910Z,19.80
2022-08-17T20:28:06.754Z,19.80
2022-08-17T20:31:30.953Z,19.70
2022-08-17T20:34:36.920Z,19.70
2022-08-17T20:37:43.278Z,19.70
2022-08-17T20:40:54.648Z,19.70
2022-08-17T20:43:58.995Z,19.70
2022-08-17T20:47:07.974Z,19.70
2022-08-17T20:50:15.172Z,19.70
2022-08-17T20:53:55.159Z,19.70
2022-08-17T20:56:58.429Z,19.60
2022-08-17T21:00:22.477Z,19.60
2022-08-17T21:03:24.421Z,19.50
2022-08-17T21:06:26.381Z,19.40
2022-08-17T21:09:29.941Z,19.50
2022-08-17T21:12:48.072Z,19.50
2022-08-17T21:16:06.632Z,19.50
2022-08-17T21:19:54.164Z,19.40
2022-08-17T21:23:27.177Z,19.40
2022-08-17T21:26:30.824Z,19.40
2022-08-17T21:29:34.116Z,19.40
2022-08-17T21:32:42.812Z,19.40
2022-08-17T21:35:50.421Z,19.40
2022-08-17T21:38:57.953Z,19.30
2022-08-17T21:42:00.328Z,19.30
2022-08-17T21:45:11.186Z,19.20
2022-08-17T21:48:19.726Z,19.20
2022-08-17T21:51:27.412Z,19.20
2022-08-17T21:54:36.230Z,19.20
2022-08-17T21:57:40.715Z,19.10
2022-08-17T22:01:25.077Z,19.10
2022-08-17T22:04:30.934Z,19.10
2022-08-17T22:07:43.870Z,18.90
2022-08-17T22:10:48.465Z,18.80
2022-08-17T22:13:51.725Z,18.80
2022-08-17T22:17:16.370Z,18.90
2022-08-17T22:20:19.281Z,18.90
2022-08-17T22:23:51.540Z,18.90
2022-08-17T22:27:07.564Z,18.90
2022-08-17T22:30:33.814Z,18.90
2022-08-17T22:33:50.051Z,18.90
2022-08-17T22:37:12.165Z,19.00
2022-08-17T22:40:31.180Z,18.90
2022-08-17T22:43:35.021Z,18.90
2022-08-17T22:46:39.760Z,18.90
2022-08-17T22:49:54.710Z,18.90
2022-08-17T22:53:20.330Z,18.90
2022-08-17T22:56:42.503Z,18.90
2022-08-17T22:59:47.608Z,18.90
2022-08-17T23:03:06.366Z,18.90
2022-08-17T23:06:10.140Z,18.90
2022-08-17T23:09:12.046Z,18.90
2022-08-17T23:12:16.644Z,18.80
2022-08-17T23:15:19.267Z,18.80
2022-08-17T23:18:21.969Z,18.80
2022-08-17T23:21:27.413Z,18.90
2022-08-17T23:24:30.539Z,18.90
2022-08-17T23:27:32.467Z,18.90
2022-08-17T23:30:36.319Z,18.90
2022-08-17T23:33:41.261Z,18.90
2022-08-17T23:36:52.625Z,18.80
2022-08-17T23:39:55.004Z,18.80
2022-08-17T23:42:56.960Z,18.90
2022-08-17T23:46:00.790Z,18.90
2022-08-17T23:49:03.347Z,18.90
2022-08-17T23:52:05.789Z,18.90
2022-08-17T23:55:08.464Z,18.90
2022-08-17T23:58:10.445Z,18.90
